Time;durP1;ratioP1;P1;durP2;ratioP2;P2;SDS_P1;SDS_P2;PMS_P1;PMS_P2;Temp;Humidity;BMP_temperature;BMP_pressure;BME280_temperature;BME280_humidity;BME280_pressure;Samples;Min_cycle;Max_cycle;Signal;HPM_P1;HPM_P2
2021/04/21 00:01:34;;;;;;;9.80;6.60;;;;;;;3.70;79.80;98951.22;5113374;28;20120;-82
2021/04/21 00:04:04;;;;;;;8.70;5.88;;;;;;;3.73;79.99;98955.44;5113305;28;20058;-82
2021/04/21 00:06:33;;;;;;;10.95;7.03;;;;;;;3.68;80.16;98945.13;5112751;28;20651;-82
2021/04/21 00:09:02;;;;;;;10.38;6.53;;;;;;;3.88;79.19;98951.31;5112497;28;20043;-82
2021/04/21 00:11:29;;;;;;;10.90;6.93;;;;;;;3.86;78.77;98931.75;5111621;28;20051;-81
2021/04/21 00:13:57;;;;;;;13.30;6.47;;;;;;;3.84;78.46;98946.34;5113395;28;20604;-82
2021/04/21 00:16:24;;;;;;;10.93;6.25;;;;;;;3.70;79.08;98953.91;5116727;28;20066;-82
2021/04/21 00:18:51;;;;;;;11.30;6.70;;;;;;;3.56;79.49;98940.94;5112023;28;20040;-82
2021/04/21 00:21:18;;;;;;;10.60;6.30;;;;;;;3.58;79.24;98943.47;5110727;28;20071;-82
2021/04/21 00:23:45;;;;;;;9.77;6.57;;;;;;;3.50;79.64;98950.41;5112817;28;20066;-82
2021/04/21 00:26:16;;;;;;;10.70;6.80;;;;;;;3.47;79.97;98947.19;5110741;28;20419;-82
2021/04/21 00:28:43;;;;;;;12.75;6.55;;;;;;;3.42;79.46;98934.19;5111651;28;20483;-82
2021/04/21 00:31:12;;;;;;;9.75;6.68;;;;;;;3.44;79.74;98942.09;5112937;28;20086;-82
2021/04/21 00:33:40;;;;;;;10.53;5.50;;;;;;;3.57;78.78;98944.44;5112557;28;20054;-82
2021/04/21 00:36:11;;;;;;;12.13;6.95;;;;;;;3.51;78.84;98948.59;5112322;28;20051;-83
2021/04/21 00:38:39;;;;;;;10.38;6.70;;;;;;;3.44;78.85;98940.25;5111552;28;20138;-82
2021/04/21 00:41:17;;;;;;;11.90;7.15;;;;;;;3.36;79.07;98938.28;5113037;28;20055;-82
2021/04/21 00:43:51;;;;;;;10.45;6.97;;;;;;;3.34;79.09;98944.78;5112927;28;20077;-82
2021/04/21 00:46:22;;;;;;;11.27;6.63;;;;;;;3.32;78.83;98936.88;5092027;28;20044;-82
2021/04/21 00:48:54;;;;;;;;;;;;;;;3.48;78.48;98949.72;5092979;28;20040;-82
2021/04/21 00:51:27;;;;;;;12.07;6.75;;;;;;;3.28;78.75;98938.16;5092500;28;19920;-82
2021/04/21 00:54:03;;;;;;;15.57;9.00;;;;;;;3.11;79.53;98936.19;5096831;28;20062;-82
2021/04/21 00:56:38;;;;;;;11.18;7.60;;;;;;;3.16;79.64;98945.53;5112626;28;20095;-81
2021/04/21 00:59:10;;;;;;;13.82;7.50;;;;;;;3.04;80.26;98932.38;5111508;28;20055;-82
2021/04/21 01:01:42;;;;;;;11.70;7.65;;;;;;;3.01;81.74;98930.81;5112616;28;20052;-82
2021/04/21 01:04:09;;;;;;;11.30;7.65;;;;;;;3.05;81.41;98934.91;5112359;28;20043;-81
2021/04/21 01:06:38;;;;;;;11.60;7.22;;;;;;;2.93;81.09;98928.00;5112831;28;20043;-81
2021/04/21 01:09:06;;;;;;;12.10;7.30;;;;;;;2.94;81.91;98933.25;5112683;28;20483;-82
2021/04/21 01:11:38;;;;;;;15.75;7.82;;;;;;;2.87;83.37;98917.84;5110803;28;20047;-82
2021/04/21 01:14:08;;;;;;;12.63;7.82;;;;;;;2.95;83.53;98921.53;5112482;28;20104;-82
2021/04/21 01:16:35;;;;;;;;;;;;;;;3.06;83.50;98927.72;5113277;28;20055;-82
2021/04/21 01:19:10;;;;;;;12.30;6.93;;;;;;;3.03;83.47;98931.53;5112916;28;19919;-82
2021/04/21 01:21:42;;;;;;;13.13;7.32;;;;;;;2.85;82.67;98919.84;5116321;28;20075;-81
2021/04/21 01:24:20;;;;;;;9.52;7.18;;;;;;;2.94;82.62;98921.66;5115639;28;20495;-82
2021/04/21 01:27:06;;;;;;;12.43;7.47;;;;;;;3.06;81.87;98923.19;5113238;28;20048;-82
2021/04/21 01:29:36;;;;;;;13.75;7.03;;;;;;;2.99;81.81;98905.97;5115759;28;20511;-83
2021/04/21 01:32:04;;;;;;;;;;;;;;;3.12;81.58;98913.72;5116359;28;20128;-83
2021/04/21 01:34:33;;;;;;;13.30;7.07;;;;;;;3.19;80.42;98920.19;5115132;28;19920;-82
2021/04/21 01:37:03;;;;;;;13.38;7.13;;;;;;;3.05;81.07;98918.81;5115680;28;20055;-83
2021/04/21 01:39:31;;;;;;;18.73;7.78;;;;;;;2.93;80.83;98925.31;5115491;28;20047;-83
2021/04/21 01:41:59;;;;;;;11.52;7.35;;;;;;;2.81;81.27;98919.25;5115725;28;20044;-82
2021/04/21 01:44:29;;;;;;;13.40;6.78;;;;;;;2.79;81.62;98907.81;5115215;28;20048;-83
2021/04/21 01:47:02;;;;;;;11.32;7.05;;;;;;;2.97;80.34;98922.22;5116462;28;20101;-82
2021/04/21 01:49:57;;;;;;;11.88;7.63;;;;;;;2.82;81.49;98923.63;5115791;28;20051;-84
2021/04/21 01:52:37;;;;;;;10.70;7.28;;;;;;;2.72;81.77;98920.09;5115912;28;20055;-83
2021/04/21 01:55:15;;;;;;;12.30;7.05;;;;;;;2.65;82.52;98922.50;5115192;28;20120;-83
2021/04/21 01:57:45;;;;;;;14.80;7.55;;;;;;;2.55;82.44;98910.91;5115490;28;20548;-83
2021/04/21 02:00:21;;;;;;;12.43;7.38;;;;;;;2.88;80.79;98915.00;5115528;28;20540;-83
2021/04/21 02:02:58;;;;;;;13.85;7.65;;;;;;;2.69;80.99;98920.38;5115399;28;20090;-83
2021/04/21 02:05:33;;;;;;;13.27;7.03;;;;;;;2.70;80.91;98911.34;5108069;28;20048;-83
2021/04/21 02:08:05;;;;;;;12.45;8.00;;;;;;;2.76;80.39;98911.63;5094961;28;20048;-83
2021/04/21 02:10:43;;;;;;;13.40;7.85;;;;;;;2.72;80.38;98914.72;5095170;28;20048;-83
2021/04/21 02:13:23;;;;;;;12.60;7.75;;;;;;;2.76;80.44;98922.34;5094809;28;20044;-83
2021/04/21 02:16:18;;;;;;;12.85;6.75;;;;;;;2.64;80.98;98927.00;5094518;28;20052;-83
2021/04/21 02:19:15;;;;;;;11.23;7.03;;;;;;;2.65;80.91;98920.66;5094179;28;20519;-82
2021/04/21 02:21:47;;;;;;;14.25;8.32;;;;;;;2.68;80.05;98919.53;5092598;28;20048;-82
2021/04/21 02:24:28;;;;;;;17.30;7.25;;;;;;;2.73;79.40;98929.84;5115879;27;20074;-82
2021/04/21 02:27:04;;;;;;;14.10;7.95;;;;;;;2.61;79.32;98921.09;5133801;27;20055;-82
2021/04/21 02:29:39;;;;;;;10.45;7.03;;;;;;;2.45;79.95;98929.66;5120431;27;20052;-82
2021/04/21 02:32:15;;;;;;;12.13;6.90;;;;;;;2.24;80.53;98924.41;5114349;28;20067;-81
2021/04/21 02:34:52;;;;;;;14.25;7.25;;;;;;;2.17;80.87;98940.22;5114255;28;20047;-82
2021/04/21 02:37:24;;;;;;;11.88;6.95;;;;;;;2.16;80.82;98924.25;5114842;28;20087;-82
2021/04/21 02:40:01;;;;;;;10.57;7.22;;;;;;;2.30;80.64;98927.41;5114594;28;20044;-82
2021/04/21 02:42:37;;;;;;;16.52;8.27;;;;;;;2.20;79.79;98904.19;5114726;28;20056;-82
2021/04/21 02:45:11;;;;;;;10.73;7.05;;;;;;;2.16;80.60;98918.91;5114157;28;20471;-81
2021/04/21 02:47:43;;;;;;;13.30;7.70;;;;;;;2.11;80.46;98912.09;5114647;28;20055;-82
2021/04/21 02:50:19;;;;;;;10.75;6.80;;;;;;;2.19;80.40;98926.66;5114593;28;20060;-82
2021/04/21 02:53:11;;;;;;;13.60;7.40;;;;;;;2.08;81.31;98925.78;5114310;28;20055;-82
2021/04/21 02:55:55;;;;;;;12.77;7.85;;;;;;;2.04;81.22;98919.00;5111923;28;20079;-82
2021/04/21 02:58:30;;;;;;;13.57;8.18;;;;;;;1.92;81.04;98902.16;5112978;28;20052;-82
2021/04/21 03:01:02;;;;;;;14.55;7.80;;;;;;;1.95;80.60;98917.97;5114443;28;20047;-82
2021/04/21 03:03:38;;;;;;;12.23;7.57;;;;;;;2.00;80.63;98919.41;5114406;28;20127;-82
2021/04/21 03:06:09;;;;;;;11.80;7.30;;;;;;;1.62;81.14;98904.88;5113908;28;20135;-82
2021/04/21 03:08:40;;;;;;;12.70;8.00;;;;;;;1.77;80.78;98904.34;5113997;28;20040;-82
2021/04/21 03:11:12;;;;;;;14.02;8.27;;;;;;;1.88;80.62;98921.31;5112383;28;20055;-83
2021/04/21 03:13:45;;;;;;;14.07;8.00;;;;;;;1.78;81.52;98918.63;5113927;28;20066;-83
2021/04/21 03:16:17;;;;;;;13.85;7.55;;;;;;;1.68;81.54;98923.09;5113336;28;20059;-83
2021/04/21 03:18:47;;;;;;;13.10;7.97;;;;;;;1.80;81.50;98929.22;5113166;28;20055;-82
2021/04/21 03:21:24;;;;;;;17.73;8.52;;;;;;;1.91;80.84;98924.59;5111781;28;20168;-84
2021/04/21 03:23:58;;;;;;;16.30;7.75;;;;;;;1.83;80.40;98913.69;5113869;28;20055;-84
2021/04/21 03:26:27;;;;;;;15.52;9.35;;;;;;;1.72;80.72;98903.94;5092239;28;20047;-83
2021/04/21 03:28:59;;;;;;;14.35;7.85;;;;;;;1.64;81.03;98910.94;5108170;28;20048;-83
2021/04/21 03:31:30;;;;;;;13.05;8.15;;;;;;;1.52;81.27;98907.50;5113191;28;20047;-83
2021/04/21 03:34:15;;;;;;;16.48;8.23;;;;;;;1.58;81.96;98923.91;5120521;27;20047;-83
2021/04/21 03:36:44;;;;;;;11.45;7.80;;;;;;;1.49;82.40;98902.41;5134305;27;20047;-83
2021/04/21 03:39:12;;;;;;;18.27;7.95;;;;;;;1.68;83.32;98913.22;5132468;27;20050;-83
2021/04/21 03:41:39;;;;;;;16.93;8.50;;;;;;;1.58;83.42;98898.91;5133404;27;20051;-83
2021/04/21 03:44:06;;;;;;;16.63;9.30;;;;;;;1.74;82.54;98907.31;5133455;27;20050;-83
2021/04/21 03:46:33;;;;;;;15.00;8.30;;;;;;;1.84;81.15;98910.03;5134084;27;20555;-83
2021/04/21 03:49:01;;;;;;;12.65;8.18;;;;;;;1.75;81.21;98914.38;5134403;27;20051;-83
2021/04/21 03:51:28;;;;;;;13.77;8.13;;;;;;;1.54;81.51;98910.91;5133953;27;20562;-83
2021/04/21 03:53:56;;;;;;;13.45;8.70;;;;;;;1.41;82.21;98909.25;5112171;27;20836;-83
2021/04/21 03:56:27;;;;;;;13.63;7.35;;;;;;;1.40;82.42;98907.59;5113139;28;20055;-83
2021/04/21 03:58:55;;;;;;;13.35;8.38;;;;;;;1.50;81.79;98907.63;5113339;28;20117;-79
2021/04/21 04:01:23;;;;;;;12.40;7.93;;;;;;;1.22;82.58;98912.69;5113147;28;20051;-83
2021/04/21 04:03:52;;;;;;;16.75;8.43;;;;;;;1.32;82.08;98918.09;5113292;28;20039;-83
2021/04/21 04:06:26;;;;;;;15.55;8.52;;;;;;;1.36;82.03;98914.19;5112874;28;20048;-83
2021/04/21 04:08:59;;;;;;;15.90;8.57;;;;;;;1.35;82.55;98914.31;5113343;28;20059;-83
2021/04/21 04:11:27;;;;;;;13.80;8.20;;;;;;;1.35;81.71;98899.09;5098036;28;20081;-84
2021/04/21 04:13:59;;;;;;;12.55;7.63;;;;;;;1.44;81.53;98900.13;5098717;28;20529;-84
2021/04/21 04:16:28;;;;;;;14.23;8.30;;;;;;;1.35;81.38;98895.56;5112997;28;20047;-84
2021/04/21 04:18:59;;;;;;;14.97;8.83;;;;;;;1.40;81.42;98894.19;5111024;28;20075;-84
2021/04/21 04:21:33;;;;;;;16.23;8.98;;;;;;;1.44;82.02;98912.69;5113358;28;20051;-84
2021/04/21 04:24:02;;;;;;;17.10;9.50;;;;;;;1.15;83.03;98898.13;5113228;28;20105;-84
2021/04/21 04:26:30;;;;;;;18.13;9.25;;;;;;;1.13;84.13;98908.13;5113287;28;20506;-84
2021/04/21 04:28:59;;;;;;;20.80;9.87;;;;;;;1.09;82.71;98904.00;5113344;28;20491;-84
2021/04/21 04:31:28;;;;;;;14.40;8.40;;;;;;;1.18;83.16;98907.75;5113232;28;20048;-84
2021/04/21 04:33:57;;;;;;;15.13;9.07;;;;;;;1.35;82.16;98907.13;5112888;28;20058;-84
2021/04/21 04:36:25;;;;;;;14.13;8.23;;;;;;;1.37;82.63;98921.25;5112795;28;20055;-84
2021/04/21 04:38:52;;;;;;;17.08;9.30;;;;;;;1.40;82.06;98910.28;5112282;28;20443;-84
2021/04/21 04:41:19;;;;;;;15.48;9.32;;;;;;;1.53;81.30;98926.13;5110660;28;20048;-84
2021/04/21 04:43:50;;;;;;;13.57;8.60;;;;;;;1.33;81.69;98925.16;5107466;28;20120;-83
2021/04/21 04:46:18;;;;;;;15.47;9.33;;;;;;;1.27;82.12;98924.84;5112349;28;20458;-84
2021/04/21 04:48:48;;;;;;;13.77;8.50;;;;;;;1.18;82.86;98923.81;5113156;28;20051;-84
2021/04/21 04:51:17;;;;;;;;;;;;;;;1.31;82.23;98931.63;5113648;28;20059;-83
2021/04/21 04:53:44;;;;;;;11.88;7.65;;;;;;;1.36;82.34;98921.38;5113881;28;19919;-84
2021/04/21 04:56:10;;;;;;;13.50;8.15;;;;;;;1.24;82.40;98924.13;5116161;28;20040;-84
2021/04/21 04:58:40;;;;;;;15.40;9.47;;;;;;;1.27;82.35;98919.50;5116603;28;20043;-83
2021/04/21 05:01:08;;;;;;;12.93;8.05;;;;;;;1.42;83.07;98936.94;5116645;28;20131;-84
2021/04/21 05:03:44;;;;;;;13.80;8.10;;;;;;;1.49;82.27;98942.59;5116545;28;20415;-83
2021/04/21 05:06:12;;;;;;;16.50;8.77;;;;;;;1.67;82.03;98937.47;5116032;28;20134;-83
2021/04/21 05:08:46;;;;;;;13.40;9.13;;;;;;;1.66;82.71;98942.00;5116700;28;20050;-83
2021/04/21 05:11:14;;;;;;;17.35;9.02;;;;;;;1.64;82.99;98941.28;5115323;28;20055;-83
2021/04/21 05:13:45;;;;;;;14.65;8.50;;;;;;;1.70;83.04;98951.47;5116348;28;20043;-83
2021/04/21 05:16:50;;;;;;;15.75;9.02;;;;;;;1.65;82.64;98923.38;5115423;28;20505;-83
2021/04/21 05:19:52;;;;;;;19.48;10.00;;;;;;;2.02;82.48;98947.78;5114858;28;20448;-83
2021/04/21 05:23:09;;;;;;;14.90;8.45;;;;;;;2.16;81.77;98946.56;5062469;28;20476;-83
2021/04/21 05:26:09;;;;;;;13.88;8.70;;;;;;;2.37;82.14;98949.16;5104981;28;20048;-83
2021/04/21 05:29:09;;;;;;;14.15;8.10;;;;;;;2.58;80.81;98943.69;5082500;28;20059;-83
2021/04/21 05:32:12;;;;;;;16.27;8.60;;;;;;;2.90;79.43;98955.16;5116344;28;20044;-82
2021/04/21 05:35:17;;;;;;;16.30;9.20;;;;;;;3.33;78.55;98957.38;5115506;28;20064;-82
2021/04/21 05:38:29;;;;;;;16.63;8.75;;;;;;;3.61;76.98;98938.63;5115997;28;20050;-83
2021/04/21 05:45:12;;;;;;;12.90;7.78;;;;;;;4.02;76.30;98932.97;5006709;28;20175;-83
2021/04/21 05:48:05;;;;;;;13.23;7.90;;;;;;;4.46;75.11;98951.13;5107684;28;20080;-83
2021/04/21 05:51:06;;;;;;;19.60;8.70;;;;;;;4.74;73.69;98936.66;5106021;28;20077;-83
2021/04/21 05:54:03;;;;;;;12.57;8.25;;;;;;;5.28;72.99;98960.91;5106184;28;20480;-83
2021/04/21 05:57:13;;;;;;;17.70;8.75;;;;;;;5.67;71.58;98954.25;5113277;28;20043;-83
2021/04/21 06:00:17;;;;;;;17.55;9.15;;;;;;;6.20;69.55;98947.84;5108065;28;20048;-83
2021/04/21 06:02:51;;;;;;;18.02;8.55;;;;;;;6.36;68.78;98960.53;5093038;28;20064;-83
2021/04/21 06:05:17;;;;;;;18.17;9.68;;;;;;;6.15;69.25;98928.56;5111583;28;20048;-83
2021/04/21 06:07:47;;;;;;;16.83;8.68;;;;;;;6.79;67.56;98952.41;5115484;27;20460;-83
2021/04/21 06:10:25;;;;;;;20.67;10.02;;;;;;;6.94;67.12;98966.13;5114179;28;20047;-83
2021/04/21 06:12:54;;;;;;;16.73;9.38;;;;;;;7.14;66.97;98972.03;5113954;28;20055;-83
2021/04/21 06:15:27;;;;;;;17.17;9.10;;;;;;;7.28;67.28;98945.34;5114597;28;20043;-83
2021/04/21 06:17:58;;;;;;;22.13;9.85;;;;;;;7.51;66.78;98959.03;5115377;28;20078;-83
2021/04/21 06:23:52;;;;;;;14.02;8.90;;;;;;;8.00;65.74;98952.69;5094660;28;20047;-83
2021/04/21 06:26:29;;;;;;;14.07;9.18;;;;;;;8.14;66.02;98968.22;5098806;28;20120;-83
2021/04/21 06:29:00;;;;;;;17.48;9.50;;;;;;;8.15;65.71;98949.06;5114965;28;20051;-83
2021/04/21 06:32:17;;;;;;;17.30;9.45;;;;;;;8.15;66.06;98938.25;5103035;28;20051;-83
2021/04/21 06:34:47;;;;;;;18.15;8.88;;;;;;;8.76;64.66;98951.22;5094946;28;20056;-83
2021/04/21 06:37:17;;;;;;;22.15;10.07;;;;;;;9.03;63.36;98954.41;5109808;28;20089;-84
2021/04/21 06:43:07;;;;;;;15.07;8.75;;;;;;;9.56;61.44;98968.09;5114840;28;20055;-84
2021/04/21 06:45:45;;;;;;;17.45;8.52;;;;;;;9.98;60.42;98966.66;5114964;28;20437;-83
2021/04/21 06:48:52;;;;;;;17.77;8.77;;;;;;;10.18;59.45;98950.66;5114656;27;20127;-83
2021/04/21 06:51:56;;;;;;;19.60;8.85;;;;;;;10.07;60.79;98946.53;5094088;28;20056;-83
2021/04/21 06:59:08;;;;;;;26.73;10.10;;;;;;;10.50;60.85;98953.19;5092323;28;20071;-83
2021/04/21 07:01:35;;;;;;;26.77;9.95;;;;;;;10.86;60.06;98960.53;5066998;28;20064;-83
2021/04/21 07:04:16;;;;;;;24.08;10.23;;;;;;;10.80;61.04;98965.69;5096199;28;20503;-84
2021/04/21 07:07:32;;;;;;;20.90;9.80;;;;;;;11.05;62.03;98950.88;5096523;28;20056;-84
2021/04/21 07:10:01;;;;;;;31.92;12.00;;;;;;;11.26;61.15;98961.78;5110081;28;20402;-84
2021/04/21 07:12:32;;;;;;;27.95;12.50;;;;;;;11.36;62.27;98961.44;5112451;28;20093;-84
2021/04/21 07:14:59;;;;;;;26.05;11.93;;;;;;;11.55;61.91;98964.53;5113266;28;20050;-83
2021/04/21 07:17:41;;;;;;;24.77;11.82;;;;;;;11.81;60.40;98969.38;5113654;28;20122;-84
2021/04/21 07:20:08;;;;;;;26.02;12.82;;;;;;;11.72;57.98;98970.56;5113881;28;20050;-82
2021/04/21 07:22:43;;;;;;;32.28;12.23;;;;;;;11.60;59.13;98968.38;5112768;28;20081;-85
2021/04/21 07:25:14;;;;;;;35.28;14.35;;;;;;;11.66;58.77;98969.47;5111279;27;20043;-85
2021/04/21 07:27:44;;;;;;;25.02;12.55;;;;;;;11.61;59.14;98972.78;5111809;28;20100;-85
2021/04/21 07:30:13;;;;;;;25.98;13.93;;;;;;;11.75;59.04;98962.84;5111573;27;20126;-85
2021/04/21 07:32:46;;;;;;;22.33;13.07;;;;;;;11.99;60.29;98969.75;5110946;28;20055;-86
2021/04/21 07:35:19;;;;;;;23.98;13.68;;;;;;;11.93;59.04;98973.28;5110137;28;20094;-86
2021/04/21 07:37:46;;;;;;;23.30;13.35;;;;;;;11.83;59.24;98970.88;5112033;28;20487;-85
2021/04/21 07:40:25;;;;;;;25.92;13.65;;;;;;;11.84;58.16;98964.38;5110763;28;20051;-85
2021/04/21 07:43:02;;;;;;;25.05;14.45;;;;;;;12.09;59.21;98974.00;5112020;28;20056;-85
2021/04/21 07:45:43;;;;;;;22.70;13.93;;;;;;;12.16;58.66;98964.00;5130898;27;20043;-86
2021/04/21 07:48:40;;;;;;;19.83;12.70;;;;;;;12.22;57.84;98949.56;5133433;27;20058;-86
2021/04/21 07:51:36;;;;;;;21.98;13.73;;;;;;;12.65;57.25;98973.91;5107995;28;20117;-85
2021/04/21 07:54:08;;;;;;;24.65;13.65;;;;;;;12.38;57.61;98965.59;5111408;28;20051;-84
2021/04/21 07:56:49;;;;;;;23.15;13.98;;;;;;;12.57;59.14;98965.91;5091096;28;20465;-85
2021/04/21 07:59:18;;;;;;;24.45;13.13;;;;;;;12.69;57.92;98979.78;5090887;28;20048;-85
2021/04/21 08:01:45;;;;;;;24.08;13.63;;;;;;;12.63;58.50;98965.09;5107783;28;20055;-85
2021/04/21 08:04:23;;;;;;;24.45;14.30;;;;;;;12.72;56.87;98976.66;5110879;28;20411;-85
2021/04/21 08:06:52;;;;;;;24.10;14.43;;;;;;;12.87;58.43;98974.63;5104982;28;20055;-85
2021/04/21 08:09:19;;;;;;;22.77;14.30;;;;;;;12.71;56.17;98972.25;5091064;28;20040;-85
2021/04/21 08:11:46;;;;;;;23.83;14.25;;;;;;;12.53;57.18;98970.91;5099470;28;20329;-85
2021/04/21 08:14:13;;;;;;;26.45;14.70;;;;;;;12.37;57.90;98971.25;5110770;28;20101;-85
2021/04/21 08:16:39;;;;;;;26.67;14.60;;;;;;;12.53;57.33;98970.91;5111248;28;20048;-85
2021/04/21 08:19:15;;;;;;;23.17;14.38;;;;;;;12.80;56.39;98975.66;5093427;28;20484;-85
2021/04/21 08:21:44;;;;;;;25.08;14.40;;;;;;;13.06;57.10;98970.25;5097397;28;20047;-85
2021/04/21 08:24:13;;;;;;;24.90;14.98;;;;;;;13.36;56.16;98980.03;5110302;28;20096;-84
2021/04/21 08:26:41;;;;;;;23.08;13.07;;;;;;;12.68;55.96;98973.50;5110852;28;20077;-84
2021/04/21 08:29:10;;;;;;;21.55;13.15;;;;;;;12.95;55.71;98961.81;5112516;28;20039;-84
2021/04/21 08:31:37;;;;;;;23.73;13.65;;;;;;;12.87;54.85;98966.44;5115340;28;20055;-85
2021/04/21 08:34:03;;;;;;;23.60;14.40;;;;;;;13.02;55.33;98987.25;5115085;28;20059;-84
2021/04/21 08:36:30;;;;;;;24.05;14.15;;;;;;;12.93;55.01;98973.81;5114804;28;20545;-84
2021/04/21 08:38:56;;;;;;;29.05;14.77;;;;;;;13.08;54.33;98986.44;5114555;28;20044;-85
2021/04/21 08:41:27;;;;;;;24.58;14.25;;;;;;;13.25;54.60;98979.56;5114998;28;20155;-84
2021/04/21 08:43:56;;;;;;;27.13;14.80;;;;;;;13.29;54.07;98966.31;5108012;28;20055;-84
2021/04/21 08:46:23;;;;;;;30.38;15.13;;;;;;;13.75;54.39;98970.19;5114453;28;20423;-84
2021/04/21 08:48:50;;;;;;;22.38;15.10;;;;;;;13.97;53.24;98979.84;5114533;28;20112;-82
2021/04/21 08:51:24;;;;;;;26.38;14.90;;;;;;;14.20;54.75;98983.19;5114566;28;20055;-85
2021/04/21 08:53:55;;;;;;;29.08;15.70;;;;;;;14.17;52.38;98962.56;5113291;28;20047;-83
2021/04/21 08:56:46;;;;;;;25.25;15.65;;;;;;;13.96;51.64;98983.63;5114127;28;20065;-85
2021/04/21 08:59:38;;;;;;;28.67;15.82;;;;;;;14.15;52.16;98959.19;5113800;28;20142;-83
2021/04/21 09:02:06;;;;;;;28.08;15.02;;;;;;;14.46;50.13;98974.06;5092776;28;20495;-83
2021/04/21 09:04:32;;;;;;;25.05;14.98;;;;;;;14.49;51.86;98969.00;5093573;28;20044;-83
2021/04/21 09:06:59;;;;;;;23.40;14.95;;;;;;;14.80;50.10;98972.94;5114452;28;20464;-84
2021/04/21 09:09:25;;;;;;;23.67;14.13;;;;;;;14.66;48.37;98960.34;5114500;28;20047;-83
2021/04/21 09:11:55;;;;;;;23.88;13.65;;;;;;;14.44;47.40;98970.72;5112638;28;20073;-83
2021/04/21 09:14:21;;;;;;;24.35;14.48;;;;;;;14.31;48.71;98950.53;5113660;28;20055;-83
2021/04/21 09:16:49;;;;;;;23.20;14.23;;;;;;;14.19;48.59;98955.00;5114175;27;20100;-85
2021/04/21 09:19:19;;;;;;;23.35;13.55;;;;;;;14.41;47.62;98957.47;5113801;28;20092;-83
2021/04/21 09:21:46;;;;;;;19.73;12.65;;;;;;;14.39;48.50;98965.91;5113810;28;20487;-84
2021/04/21 09:24:14;;;;;;;23.90;12.93;;;;;;;14.61;47.89;98952.78;5113528;28;20445;-83
2021/04/21 09:26:40;;;;;;;18.95;11.43;;;;;;;14.84;46.08;98965.97;5113459;28;20043;-83
2021/04/21 09:29:06;;;;;;;18.27;11.80;;;;;;;15.03;45.27;98975.13;5113817;28;20073;-80
2021/04/21 09:31:34;;;;;;;19.85;11.20;;;;;;;15.10;44.53;98957.81;5104575;28;20050;-80
2021/04/21 09:34:18;;;;;;;22.67;13.80;;;;;;;14.91;45.21;98952.25;5103669;28;20121;-82
2021/04/21 09:39:52;;;;;;;18.52;12.23;;;;;;;15.29;46.83;98951.38;5105877;28;20044;-83
2021/04/21 09:42:26;;;;;;;17.70;11.98;;;;;;;15.16;45.25;98948.72;5114396;28;20048;-83
2021/04/21 09:44:56;;;;;;;20.38;11.00;;;;;;;15.25;45.74;98941.09;5113197;28;20427;-83
2021/04/21 09:47:23;;;;;;;18.90;11.65;;;;;;;15.47;45.56;98953.38;5114281;28;20070;-83
2021/04/21 09:49:55;;;;;;;24.83;9.95;;;;;;;15.56;43.31;98949.28;5114075;28;20081;-83
2021/04/21 09:52:31;;;;;;;14.75;9.23;;;;;;;15.66;42.56;98947.97;5109333;28;20063;-83
2021/04/21 09:54:58;;;;;;;17.95;10.48;;;;;;;15.53;43.33;98929.72;5091979;28;20052;-84
2021/04/21 09:57:31;;;;;;;18.60;10.02;;;;;;;15.76;42.57;98934.59;5104609;28;20047;-84
2021/04/21 10:00:00;;;;;;;17.25;10.40;;;;;;;15.93;42.84;98923.94;5107105;28;20399;-83
2021/04/21 10:02:53;;;;;;;14.10;8.87;;;;;;;16.42;42.44;98935.00;5107444;28;20040;-84
2021/04/21 10:05:39;;;;;;;19.92;11.07;;;;;;;16.68;41.25;98938.50;5094227;28;20139;-84
2021/04/21 10:08:30;;;;;;;14.88;9.45;;;;;;;16.53;37.49;98922.44;5099408;28;20058;-84
2021/04/21 10:11:01;;;;;;;15.68;9.73;;;;;;;16.47;38.67;98929.69;5114366;28;20416;-84
2021/04/21 10:13:40;;;;;;;14.77;9.10;;;;;;;16.74;39.89;98938.44;5100971;28;20048;-84
2021/04/21 10:16:08;;;;;;;16.10;9.93;;;;;;;16.78;36.46;98936.06;5093188;28;20134;-85
2021/04/21 10:18:35;;;;;;;15.88;8.80;;;;;;;16.94;37.91;98916.22;5103843;28;20044;-84
2021/04/21 10:21:03;;;;;;;21.08;10.20;;;;;;;17.07;37.36;98923.47;5113694;28;20093;-84
2021/04/21 10:23:30;;;;;;;17.70;11.13;;;;;;;17.10;36.50;98931.22;5113703;28;20104;-84
2021/04/21 10:26:16;;;;;;;15.82;10.35;;;;;;;17.19;36.31;98922.66;5113624;28;20060;-84
2021/04/21 10:29:36;;;;;;;17.27;10.30;;;;;;;17.25;36.35;98919.81;5102027;27;20044;-84
2021/04/21 10:32:03;;;;;;;;;;;;;;;17.60;38.89;98927.28;5106180;28;20051;-85
2021/04/21 10:34:30;;;;;;;17.90;9.05;;;;;;;17.69;37.58;98905.81;5112686;28;20376;-84
2021/04/21 10:37:00;;;;;;;16.52;9.50;;;;;;;17.98;35.78;98905.94;5113386;28;20491;-84
2021/04/21 10:39:32;;;;;;;13.15;8.35;;;;;;;17.98;33.86;98923.28;5113432;28;20052;-84
2021/04/21 10:42:05;;;;;;;13.68;8.70;;;;;;;17.72;35.65;98901.72;5113155;28;20048;-84
2021/04/21 10:44:32;;;;;;;17.75;9.55;;;;;;;17.88;38.03;98917.50;5114241;28;20058;-85
2021/04/21 10:47:07;;;;;;;16.63;10.02;;;;;;;17.94;36.58;98905.56;5115279;27;20055;-83
2021/04/21 10:49:40;;;;;;;14.52;10.02;;;;;;;17.76;38.66;98916.66;5113092;28;20062;-84
2021/04/21 10:52:12;;;;;;;15.77;9.40;;;;;;;17.56;37.40;98889.53;5112584;28;20127;-84
2021/04/21 10:54:44;;;;;;;17.92;9.93;;;;;;;17.63;37.63;98904.81;5111355;28;20046;-84
2021/04/21 11:00:59;;;;;;;14.95;8.23;;;;;;;17.30;37.75;98911.69;5086057;28;20100;-85
2021/04/21 11:10:10;;;;;;;17.33;9.88;;;;;;;17.47;37.10;98891.78;5090115;28;20116;-84
2021/04/21 11:17:12;;;;;;;;;;;;;;;;;;;;;
2021/04/21 11:30:30;;;;;;;13.40;8.77;;;;;;;17.67;35.38;98867.56;5059301;28;20489;-84
2021/04/21 11:32:58;;;;;;;13.43;9.10;;;;;;;17.93;34.76;98867.31;5107176;28;20047;-84
2021/04/21 11:35:32;;;;;;;13.70;8.75;;;;;;;18.05;35.45;98854.41;5112219;28;20071;-85
2021/04/21 11:37:59;;;;;;;17.73;8.77;;;;;;;18.21;35.55;98867.41;5091532;28;20513;-82
2021/04/21 11:40:29;;;;;;;14.57;8.70;;;;;;;17.85;34.99;98861.09;5091792;28;20052;-84
2021/04/21 11:43:15;;;;;;;13.93;8.95;;;;;;;17.96;35.61;98850.34;5105495;28;20510;-84
2021/04/21 11:48:59;;;;;;;14.60;9.38;;;;;;;18.44;34.78;98865.69;5102777;28;20226;-84
2021/04/21 11:51:46;;;;;;;13.02;9.18;;;;;;;18.31;34.82;98864.03;5099747;28;20047;-84
2021/04/21 11:54:12;;;;;;;12.80;8.65;;;;;;;17.96;35.21;98851.19;5111911;28;20128;-84
2021/04/21 11:56:39;;;;;;;14.25;8.68;;;;;;;17.99;34.49;98861.72;5112347;28;20055;-84
2021/04/21 11:59:17;;;;;;;16.00;9.43;;;;;;;17.95;35.38;98860.50;5121196;28;20099;-84
2021/04/21 12:08:02;;;;;;;11.30;7.55;;;;;;;18.52;32.44;98836.94;5090226;28;20132;-84
2021/04/21 12:10:33;;;;;;;12.65;7.90;;;;;;;18.72;31.86;98834.56;5092323;28;20500;-84
2021/04/21 12:13:22;;;;;;;15.77;8.57;;;;;;;18.82;31.92;98836.69;5111497;28;20044;-83
2021/04/21 12:15:58;;;;;;;12.55;7.20;;;;;;;18.53;31.94;98831.19;5110804;28;20058;-84
2021/04/21 12:18:34;;;;;;;12.88;7.80;;;;;;;18.81;32.24;98825.94;5096028;28;20054;-84
2021/04/21 12:21:27;;;;;;;13.38;8.38;;;;;;;18.91;32.71;98826.97;5101504;28;20040;-84
2021/04/21 12:24:03;;;;;;;11.68;7.88;;;;;;;18.85;33.23;98830.72;5111019;28;20047;-84
2021/04/21 12:26:32;;;;;;;13.38;7.05;;;;;;;19.28;34.08;98817.41;5110753;28;20086;-84
2021/04/21 12:29:01;;;;;;;16.30;7.55;;;;;;;19.54;30.74;98834.34;5109910;28;20062;-84
2021/04/21 12:31:30;;;;;;;13.30;7.55;;;;;;;19.00;31.04;98827.41;5110308;28;20052;-84
2021/04/21 12:34:03;;;;;;;11.32;7.20;;;;;;;18.87;31.86;98833.22;5109490;28;20047;-84
2021/04/21 12:36:32;;;;;;;15.43;7.72;;;;;;;18.89;31.32;98815.38;5107335;28;20051;-84
2021/04/21 12:39:03;;;;;;;9.70;6.05;;;;;;;19.25;30.31;98832.53;5107462;28;20101;-84
2021/04/21 12:41:29;;;;;;;10.43;6.45;;;;;;;19.27;29.40;98811.06;5110467;28;20050;-83
2021/04/21 12:43:56;;;;;;;8.02;5.88;;;;;;;19.40;29.42;98814.56;5106222;28;20048;-83
2021/04/21 12:46:25;;;;;;;13.05;5.97;;;;;;;19.75;28.41;98806.00;5090052;28;20105;-83
2021/04/21 12:48:53;;;;;;;9.88;6.38;;;;;;;19.78;28.25;98810.19;5105507;28;20071;-83
2021/04/21 12:51:29;;;;;;;8.27;5.60;;;;;;;19.90;28.31;98810.09;5108110;28;20735;-83
2021/04/21 12:53:56;;;;;;;5.85;4.18;;;;;;;19.88;28.11;98821.38;5106777;28;20046;-83
2021/04/21 12:56:22;;;;;;;6.38;3.53;;;;;;;19.30;27.95;98804.22;5098752;28;20105;-83